createdAt,value
2023-05-13T00:00:10.017Z,107.19
2023-05-13T00:01:10.042Z,102.61
2023-05-13T00:02:10.048Z,105.54
2023-05-13T00:03:10.144Z,98.08
2023-05-13T00:04:10.102Z,97.24
2023-05-13T00:05:10.108Z,105.76
2023-05-13T00:06:10.124Z,100.14
2023-05-13T00:07:10.133Z,100.24
2023-05-13T00:08:10.194Z,105.45
2023-05-13T00:09:10.205Z,102.87
2023-05-13T00:10:10.235Z,95.47
2023-05-13T00:11:10.239Z,98.08
2023-05-13T00:12:10.268Z,104.80
2023-05-13T00:13:10.292Z,99.18
2023-05-13T00:14:10.304Z,98.63
2023-05-13T00:15:10.325Z,103.51
2023-05-13T00:16:10.363Z,101.06
2023-05-13T00:17:10.360Z,100.99
2023-05-13T00:18:10.406Z,95.72
2023-05-13T00:19:10.532Z,102.10
2023-05-13T00:20:10.406Z,103.35
2023-05-13T00:21:10.451Z,102.93
2023-05-13T00:22:10.483Z,94.01
2023-05-13T00:23:10.628Z,97.89
2023-05-13T00:24:10.513Z,99.70
2023-05-13T00:25:10.554Z,100.79
2023-05-13T00:26:10.563Z,95.49
2023-05-13T00:27:10.583Z,96.48
2023-05-13T00:28:10.600Z,104.30
2023-05-13T00:29:10.610Z,100.33
2023-05-13T00:30:10.633Z,101.73
2023-05-13T00:31:10.685Z,101.90
2023-05-13T00:32:10.679Z,99.10
2023-05-13T00:33:10.711Z,101.75
2023-05-13T00:34:11.614Z,100.65
2023-05-13T00:35:10.761Z,100.64
2023-05-13T00:36:10.766Z,98.19
2023-05-13T00:37:10.793Z,99.05
2023-05-13T00:38:10.835Z,98.81
2023-05-13T00:39:10.821Z,98.24
2023-05-13T00:40:10.840Z,98.97
2023-05-13T00:41:10.847Z,99.04
2023-05-13T00:42:10.863Z,97.23
2023-05-13T00:43:10.867Z,96.42
2023-05-13T00:44:12.265Z,98.92
2023-05-13T00:45:10.889Z,99.60
2023-05-13T00:46:10.944Z,99.32
2023-05-13T00:47:10.869Z,94.53
2023-05-13T00:48:10.875Z,97.71
2023-05-13T00:49:10.876Z,98.15
2023-05-13T00:50:10.833Z,97.99
2023-05-13T00:51:10.823Z,94.80
2023-05-13T00:52:10.845Z,96.51
2023-05-13T00:53:10.839Z,93.87
2023-05-13T00:54:10.814Z,96.85
2023-05-13T00:55:10.802Z,94.76
2023-05-13T00:56:10.780Z,96.75
2023-05-13T00:57:10.777Z,96.65
2023-05-13T00:58:10.773Z,95.72
2023-05-13T00:59:10.795Z,93.21
2023-05-13T01:00:10.787Z,95.01
2023-05-13T01:01:10.825Z,91.83
2023-05-13T01:02:10.860Z,90.95
2023-05-13T01:03:10.820Z,97.26
2023-05-13T01:04:10.757Z,91.36
2023-05-13T01:05:10.724Z,93.07
2023-05-13T01:06:10.707Z,94.51
2023-05-13T01:07:10.740Z,95.77
2023-05-13T01:08:10.690Z,89.18
2023-05-13T01:09:10.720Z,94.18
2023-05-13T01:10:10.702Z,96.61
2023-05-13T01:11:10.695Z,96.12
2023-05-13T01:12:10.679Z,94.95
2023-05-13T01:13:10.681Z,90.48
2023-05-13T01:14:10.724Z,92.69
2023-05-13T01:15:10.675Z,94.05
2023-05-13T01:16:10.669Z,91.60
2023-05-13T01:17:10.642Z,92.60
2023-05-13T01:18:10.662Z,90.40
2023-05-13T01:19:10.726Z,92.66
2023-05-13T01:20:10.630Z,91.27
2023-05-13T01:21:10.598Z,92.55
2023-05-13T01:22:10.578Z,91.39
2023-05-13T01:23:10.622Z,90.70
2023-05-13T01:24:10.628Z,86.39
2023-05-13T01:25:10.590Z,92.46
2023-05-13T01:26:10.609Z,89.71
2023-05-13T01:27:10.565Z,91.39
2023-05-13T01:28:10.581Z,89.58
2023-05-13T01:29:10.534Z,94.42
2023-05-13T01:30:10.565Z,89.60
2023-05-13T01:31:10.573Z,91.80
2023-05-13T01:32:10.520Z,89.94
2023-05-13T01:33:10.546Z,88.92
2023-05-13T01:34:10.561Z,85.98
2023-05-13T01:35:10.513Z,88.76
2023-05-13T01:36:10.526Z,90.18
2023-05-13T01:37:10.478Z,90.90
2023-05-13T01:38:10.680Z,87.64
2023-05-13T01:39:10.474Z,90.13
2023-05-13T01:40:24.352Z,89.61
2023-05-13T01:41:11.449Z,89.93
2023-05-13T01:42:10.495Z,89.69
2023-05-13T01:43:10.425Z,89.66
2023-05-13T01:44:10.466Z,90.20
2023-05-13T01:45:10.439Z,88.62
2023-05-13T01:46:10.506Z,88.95
2023-05-13T01:47:10.439Z,87.31
2023-05-13T01:48:10.434Z,83.83
2023-05-13T01:49:10.403Z,88.41
2023-05-13T01:50:10.420Z,85.70
2023-05-13T01:51:10.405Z,86.73
2023-05-13T01:52:10.394Z,88.08
2023-05-13T01:53:10.411Z,86.29
2023-05-13T01:54:10.343Z,80.85
2023-05-13T01:55:11.167Z,86.53
2023-05-13T01:56:10.335Z,83.63
2023-05-13T01:57:10.368Z,82.98
2023-05-13T01:58:10.368Z,82.43
2023-05-13T01:59:10.362Z,81.60
2023-05-13T02:00:10.346Z,84.67
2023-05-13T02:01:10.314Z,83.68
2023-05-13T02:02:10.434Z,82.73
2023-05-13T02:03:10.436Z,83.32
2023-05-13T02:04:10.330Z,80.82
2023-05-13T02:05:10.374Z,83.44
2023-05-13T02:06:10.413Z,84.08
2023-05-13T02:07:10.423Z,81.19
2023-05-13T02:08:10.430Z,83.24
2023-05-13T02:09:10.492Z,81.43
2023-05-13T02:10:10.496Z,85.70
2023-05-13T02:11:10.512Z,83.51
2023-05-13T02:12:10.556Z,82.50
2023-05-13T02:13:10.589Z,82.00
2023-05-13T02:14:10.571Z,83.57
2023-05-13T02:15:10.612Z,81.63
2023-05-13T02:16:10.729Z,80.48
2023-05-13T02:17:10.661Z,82.95
2023-05-13T02:18:10.719Z,79.84
2023-05-13T02:19:10.819Z,80.98
2023-05-13T02:20:10.757Z,80.24
2023-05-13T02:21:10.785Z,79.25
2023-05-13T02:22:10.797Z,82.76
2023-05-13T02:23:10.820Z,81.36
2023-05-13T02:24:10.831Z,78.30
2023-05-13T02:25:10.852Z,80.03
2023-05-13T02:26:10.900Z,81.77
2023-05-13T02:27:10.917Z,81.30
2023-05-13T02:28:11.176Z,80.06
2023-05-13T02:29:10.970Z,81.22
2023-05-13T02:30:11.005Z,80.94
2023-05-13T02:31:11.042Z,79.10
2023-05-13T02:32:11.084Z,81.09
2023-05-13T02:33:11.161Z,80.93
2023-05-13T02:34:11.104Z,83.93
2023-05-13T02:35:11.124Z,80.89
2023-05-13T02:36:11.149Z,78.95
2023-05-13T02:37:11.185Z,77.83
2023-05-13T02:38:11.234Z,78.44
2023-05-13T02:39:11.214Z,80.79
2023-05-13T02:40:11.268Z,78.94
2023-05-13T02:41:11.289Z,80.85
2023-05-13T02:42:11.325Z,78.17
2023-05-13T02:43:11.352Z,79.00
2023-05-13T02:44:11.372Z,81.90
2023-05-13T02:45:11.399Z,75.65
2023-05-13T02:46:11.453Z,78.47
2023-05-13T02:47:11.462Z,76.70
2023-05-13T02:48:11.684Z,77.68
2023-05-13T02:49:11.518Z,80.03
2023-05-13T02:50:11.511Z,80.51
2023-05-13T02:51:11.541Z,79.44
2023-05-13T02:52:11.563Z,80.24
2023-05-13T02:53:11.610Z,78.96
2023-05-13T02:54:11.602Z,78.12
2023-05-13T02:55:11.709Z,76.94
2023-05-13T02:56:11.697Z,78.64
2023-05-13T02:57:11.698Z,80.08
2023-05-13T02:58:12.211Z,80.61
2023-05-13T02:59:11.791Z,81.23
2023-05-13T03:00:11.791Z,80.10
2023-05-13T03:01:11.914Z,77.10
2023-05-13T03:02:11.867Z,78.61
2023-05-13T03:03:11.945Z,76.95
2023-05-13T03:04:11.935Z,78.03
2023-05-13T03:05:11.951Z,77.72
2023-05-13T03:06:12.004Z,77.38
2023-05-13T03:07:11.996Z,76.45
2023-05-13T03:08:12.182Z,76.45
2023-05-13T03:09:12.072Z,78.21
2023-05-13T03:10:12.054Z,77.87
2023-05-13T03:11:12.129Z,74.88
2023-05-13T03:12:12.156Z,75.81
2023-05-13T03:13:12.173Z,77.85
2023-05-13T03:14:12.181Z,76.17
2023-05-13T03:15:12.207Z,75.52
2023-05-13T03:16:12.264Z,76.86
2023-05-13T03:17:12.261Z,75.83
2023-05-13T03:18:12.305Z,74.87
2023-05-13T03:19:12.374Z,76.80
2023-05-13T03:20:12.350Z,76.63
2023-05-13T03:21:12.372Z,74.60
2023-05-13T03:22:12.373Z,75.08
2023-05-13T03:23:12.420Z,76.67
2023-05-13T03:24:12.468Z,77.69
2023-05-13T03:25:12.465Z,79.20
2023-05-13T03:26:12.560Z,75.83
2023-05-13T03:27:12.572Z,76.46
2023-05-13T03:28:12.731Z,77.36
2023-05-13T03:29:12.633Z,80.28
2023-05-13T03:30:12.654Z,77.40
2023-05-13T03:31:12.724Z,77.10
2023-05-13T03:32:12.726Z,78.71
2023-05-13T03:33:13.215Z,76.48
2023-05-13T03:34:12.781Z,75.81
2023-05-13T03:35:12.836Z,78.41
2023-05-13T03:36:12.852Z,77.40
2023-05-13T03:37:12.882Z,75.05
2023-05-13T03:38:13.208Z,80.29
2023-05-13T03:39:12.979Z,78.92
2023-05-13T03:40:13.017Z,79.77
2023-05-13T03:41:13.021Z,78.21
2023-05-13T03:42:13.066Z,77.83
2023-05-13T03:43:13.131Z,78.15
2023-05-13T03:44:13.184Z,77.77
2023-05-13T03:45:13.174Z,76.20
2023-05-13T03:46:13.240Z,76.11
2023-05-13T03:47:13.229Z,76.86
2023-05-13T03:48:13.293Z,78.47
2023-05-13T03:49:13.290Z,77.53
2023-05-13T03:50:13.348Z,76.66
2023-05-13T03:51:13.351Z,78.42
2023-05-13T03:52:13.405Z,78.45
2023-05-13T03:53:13.717Z,79.68
2023-05-13T03:54:13.464Z,78.18
2023-05-13T03:55:13.519Z,78.87
2023-05-13T03:56:13.545Z,79.38
2023-05-13T03:57:13.586Z,77.46
2023-05-13T03:58:13.625Z,79.28
2023-05-13T03:59:13.654Z,81.15
2023-05-13T04:00:13.697Z,77.25
2023-05-13T04:01:13.716Z,78.18
2023-05-13T04:02:13.782Z,77.67
2023-05-13T04:03:13.847Z,77.12
2023-05-13T04:04:13.843Z,78.27
2023-05-13T04:05:14.064Z,80.66
2023-05-13T04:06:13.880Z,78.68
2023-05-13T04:07:13.927Z,79.39
2023-05-13T04:08:13.963Z,74.15
2023-05-13T04:09:13.990Z,78.28
2023-05-13T04:10:15.671Z,81.09
2023-05-13T04:11:14.044Z,79.48
2023-05-13T04:12:14.058Z,78.93
2023-05-13T04:13:14.133Z,77.25
2023-05-13T04:14:14.156Z,74.05
2023-05-13T04:15:14.197Z,78.23
2023-05-13T04:16:14.235Z,79.77
2023-05-13T04:17:14.256Z,78.87
2023-05-13T04:18:14.308Z,79.77
2023-05-13T04:19:14.813Z,80.56
2023-05-13T04:20:14.373Z,77.88
2023-05-13T04:21:14.360Z,78.56
2023-05-13T04:22:14.418Z,77.71
2023-05-13T04:23:14.443Z,79.59
2023-05-13T04:24:14.715Z,80.09
2023-05-13T04:25:14.531Z,77.98
2023-05-13T04:26:14.564Z,79.79
2023-05-13T04:27:14.612Z,79.43
2023-05-13T04:28:14.635Z,78.21
2023-05-13T04:29:14.656Z,75.72
2023-05-13T04:30:14.694Z,78.21
2023-05-13T04:31:14.741Z,79.13
2023-05-13T04:32:14.819Z,78.11
2023-05-13T04:33:14.845Z,79.10
2023-05-13T04:34:14.867Z,77.13
2023-05-13T04:35:14.881Z,77.02
2023-05-13T04:36:15.336Z,78.42
2023-05-13T04:37:14.951Z,76.62
2023-05-13T04:38:15.011Z,77.31
2023-05-13T04:39:15.240Z,80.42
2023-05-13T04:40:15.082Z,79.04
2023-05-13T04:41:15.125Z,76.14
2023-05-13T04:42:15.164Z,75.50
2023-05-13T04:43:15.187Z,74.98
2023-05-13T04:44:15.253Z,76.28
2023-05-13T04:45:15.265Z,75.98
2023-05-13T04:46:15.312Z,76.31
2023-05-13T04:47:15.325Z,75.04
2023-05-13T04:48:15.375Z,74.66
2023-05-13T04:49:15.468Z,74.91
2023-05-13T04:50:16.247Z,76.20
2023-05-13T04:51:15.493Z,77.52
2023-05-13T04:52:15.520Z,76.06
2023-05-13T04:53:15.570Z,75.89
2023-05-13T04:54:15.608Z,76.40
2023-05-13T04:55:15.656Z,76.44
2023-05-13T04:56:15.664Z,74.76
2023-05-13T04:57:15.709Z,78.85
2023-05-13T04:58:15.764Z,76.57
2023-05-13T04:59:15.796Z,76.37
2023-05-13T05:00:15.823Z,76.89
2023-05-13T05:01:15.931Z,78.05
2023-05-13T05:02:15.878Z,79.18
2023-05-13T05:03:15.929Z,79.63
2023-05-13T05:04:16.007Z,79.67
2023-05-13T05:05:18.186Z,77.80
2023-05-13T05:06:16.140Z,80.60
2023-05-13T05:07:16.149Z,78.04
2023-05-13T05:08:16.195Z,81.30
2023-05-13T05:09:16.268Z,78.85
2023-05-13T05:10:16.259Z,79.77
2023-05-13T05:11:16.322Z,80.00
2023-05-13T05:12:16.320Z,82.14
2023-05-13T05:13:16.418Z,79.35
2023-05-13T05:14:16.465Z,81.00
2023-05-13T05:15:16.564Z,79.39
2023-05-13T05:16:16.504Z,81.49
2023-05-13T05:17:16.675Z,78.18
2023-05-13T05:18:16.749Z,81.61
2023-05-13T05:19:16.671Z,78.98
2023-05-13T05:20:16.660Z,82.69
2023-05-13T05:21:16.697Z,82.24
2023-05-13T05:22:16.737Z,81.84
2023-05-13T05:23:16.786Z,84.85
2023-05-13T05:24:16.813Z,85.04
2023-05-13T05:25:16.851Z,84.05
2023-05-13T05:26:16.880Z,85.60
2023-05-13T05:27:16.930Z,84.59
2023-05-13T05:28:16.983Z,84.40
2023-05-13T05:29:16.990Z,85.93
2023-05-13T05:30:17.072Z,84.19
2023-05-13T05:31:17.152Z,85.57
2023-05-13T05:32:17.105Z,87.55
2023-05-13T05:33:17.136Z,87.25
2023-05-13T05:34:17.255Z,85.79
2023-05-13T05:35:17.209Z,85.32
2023-05-13T05:36:17.259Z,86.59
2023-05-13T05:37:17.325Z,85.48
2023-05-13T05:38:17.348Z,90.80
2023-05-13T05:39:17.786Z,90.52
2023-05-13T05:40:17.470Z,87.18
2023-05-13T05:41:17.479Z,87.71
2023-05-13T05:42:17.524Z,90.09
2023-05-13T05:43:17.592Z,89.02
2023-05-13T05:44:17.803Z,86.75
2023-05-13T05:45:17.637Z,89.09
2023-05-13T05:46:17.740Z,88.89
2023-05-13T05:47:17.719Z,89.34
2023-05-13T05:48:17.750Z,90.35
2023-05-13T05:49:17.851Z,90.14
2023-05-13T05:50:17.860Z,89.40
2023-05-13T05:51:17.889Z,91.04
2023-05-13T05:52:17.931Z,89.03
2023-05-13T05:53:18.017Z,89.12
2023-05-13T05:54:18.045Z,89.10
2023-05-13T05:55:18.086Z,93.97
2023-05-13T05:56:18.103Z,92.89
2023-05-13T05:57:18.142Z,96.26
2023-05-13T05:58:18.201Z,96.10
2023-05-13T05:59:18.288Z,92.59
2023-05-13T06:00:18.252Z,95.97
2023-05-13T06:01:18.295Z,97.90
2023-05-13T06:02:18.343Z,95.76
2023-05-13T06:03:18.475Z,100.83
2023-05-13T06:04:18.463Z,97.51
2023-05-13T06:05:18.426Z,97.67
2023-05-13T06:06:18.464Z,98.45
2023-05-13T06:07:18.587Z,98.27
2023-05-13T06:08:18.552Z,99.02
2023-05-13T06:09:18.617Z,100.74
2023-05-13T06:10:18.602Z,100.92
2023-05-13T06:11:18.669Z,101.91
2023-05-13T06:12:18.684Z,102.44
2023-05-13T06:13:18.731Z,105.28
2023-05-13T06:14:18.764Z,103.24
2023-05-13T06:15:18.840Z,106.15
2023-05-13T06:16:18.925Z,106.30
2023-05-13T06:17:18.886Z,108.54
2023-05-13T06:18:18.921Z,109.61
2023-05-13T06:19:19.041Z,107.27
2023-05-13T06:20:19.219Z,109.03
2023-05-13T06:21:19.053Z,109.83
2023-05-13T06:22:19.138Z,109.93
2023-05-13T06:23:19.142Z,108.22
2023-05-13T06:24:19.181Z,108.74
2023-05-13T06:25:19.222Z,110.92
2023-05-13T06:26:19.268Z,110.63
2023-05-13T06:27:19.324Z,110.59
2023-05-13T06:28:19.378Z,109.94
2023-05-13T06:29:19.411Z,111.33
2023-05-13T06:30:19.532Z,111.43
2023-05-13T06:31:19.510Z,113.05
2023-05-13T06:32:19.496Z,113.00
2023-05-13T06:33:19.610Z,113.26
2023-05-13T06:34:19.601Z,115.12
2023-05-13T06:35:19.651Z,114.57
2023-05-13T06:36:19.703Z,112.48
2023-05-13T06:37:19.743Z,113.13
2023-05-13T06:38:19.827Z,116.27
2023-05-13T06:39:19.833Z,115.51
2023-05-13T06:40:20.240Z,115.50
2023-05-13T06:41:20.780Z,117.47
2023-05-13T06:42:19.947Z,118.01
2023-05-13T06:43:19.996Z,119.33
2023-05-13T06:44:20.316Z,115.75
2023-05-13T06:45:20.069Z,115.96
2023-05-13T06:46:20.157Z,115.25
2023-05-13T06:47:21.822Z,118.31
2023-05-13T06:48:20.124Z,119.37
2023-05-13T06:49:20.301Z,121.22
2023-05-13T06:50:20.310Z,118.17
2023-05-13T06:51:20.101Z,117.94
2023-05-13T06:52:20.113Z,118.49
2023-05-13T06:53:20.125Z,120.02
2023-05-13T06:54:20.344Z,118.32
2023-05-13T06:55:20.074Z,119.14
2023-05-13T06:56:20.084Z,118.38
2023-05-13T06:57:21.910Z,120.22
2023-05-13T06:58:20.094Z,120.50
2023-05-13T06:59:20.052Z,120.32
2023-05-13T07:00:20.239Z,121.09
2023-05-13T07:01:20.064Z,120.49
2023-05-13T07:02:20.030Z,121.96
2023-05-13T07:03:20.042Z,123.70
2023-05-13T07:04:20.363Z,124.46
2023-05-13T07:05:20.009Z,121.68
2023-05-13T07:06:20.002Z,124.15
2023-05-13T07:07:19.973Z,122.90
2023-05-13T07:08:19.996Z,122.64
2023-05-13T07:09:20.337Z,125.35
2023-05-13T07:10:20.259Z,121.83
2023-05-13T07:11:19.953Z,125.37
2023-05-13T07:12:19.942Z,124.57
2023-05-13T07:13:19.950Z,124.81
2023-05-13T07:14:19.960Z,124.44
2023-05-13T07:15:20.084Z,124.56
2023-05-13T07:16:19.933Z,126.15
2023-05-13T07:17:19.947Z,127.41
2023-05-13T07:18:19.967Z,125.82
2023-05-13T07:19:20.369Z,125.83
2023-05-13T07:20:20.198Z,128.62
2023-05-13T07:21:19.918Z,126.03
2023-05-13T07:22:19.884Z,125.56
2023-05-13T07:23:19.885Z,127.18
2023-05-13T07:24:20.329Z,128.97
2023-05-13T07:25:19.862Z,130.17
2023-05-13T07:26:19.869Z,128.59
2023-05-13T07:27:19.856Z,130.01
2023-05-13T07:28:19.857Z,129.88
2023-05-13T07:29:19.828Z,128.24
2023-05-13T07:30:19.871Z,126.50
2023-05-13T07:31:19.939Z,127.79
2023-05-13T07:32:19.853Z,130.17
2023-05-13T07:33:19.806Z,128.88
2023-05-13T07:34:19.817Z,130.36
2023-05-13T07:35:19.907Z,129.96
2023-05-13T07:36:19.774Z,130.88
2023-05-13T07:37:19.789Z,132.91
2023-05-13T07:38:19.785Z,131.31
2023-05-13T07:39:19.751Z,131.57
2023-05-13T07:40:19.839Z,130.97
2023-05-13T07:41:19.788Z,131.86
2023-05-13T07:42:19.750Z,134.20
2023-05-13T07:43:19.746Z,130.23
2023-05-13T07:44:19.723Z,133.29
2023-05-13T07:45:19.899Z,134.19
2023-05-13T07:46:19.877Z,134.19
2023-05-13T07:47:19.922Z,134.27
2023-05-13T07:48:19.896Z,134.31
2023-05-13T07:49:20.382Z,132.98
2023-05-13T07:50:20.022Z,136.87
2023-05-13T07:51:20.021Z,136.02
2023-05-13T07:52:20.058Z,135.38
2023-05-13T07:53:20.130Z,136.91
2023-05-13T07:54:20.334Z,134.94
2023-05-13T07:55:20.304Z,138.86
2023-05-13T07:56:20.166Z,137.07
2023-05-13T07:57:20.225Z,136.43
2023-05-13T07:58:20.259Z,137.42
2023-05-13T07:59:20.272Z,136.87
2023-05-13T08:00:20.309Z,137.91
2023-05-13T08:01:20.347Z,136.63
2023-05-13T08:02:20.397Z,139.13
2023-05-13T08:03:20.531Z,136.07
2023-05-13T08:04:20.593Z,137.91
2023-05-13T08:05:20.809Z,138.28
2023-05-13T08:06:20.573Z,140.34
2023-05-13T08:07:20.590Z,137.14
2023-05-13T08:08:20.604Z,138.98
2023-05-13T08:09:20.868Z,138.82
2023-05-13T08:10:20.699Z,139.79
2023-05-13T08:11:20.762Z,139.35
2023-05-13T08:12:20.808Z,140.10
2023-05-13T08:13:20.823Z,139.59
2023-05-13T08:14:21.353Z,140.41
2023-05-13T08:15:21.126Z,143.41
2023-05-13T08:16:20.978Z,142.36
2023-05-13T08:17:21.026Z,138.08
2023-05-13T08:18:21.037Z,141.56
2023-05-13T08:19:21.219Z,140.94
2023-05-13T08:20:21.114Z,141.73
2023-05-13T08:21:21.155Z,141.18
2023-05-13T08:22:21.194Z,141.25
2023-05-13T08:23:23.185Z,140.57
2023-05-13T08:24:22.391Z,140.82
2023-05-13T08:25:21.272Z,141.17
2023-05-13T08:26:21.179Z,141.66
2023-05-13T08:27:21.197Z,142.49
2023-05-13T08:28:21.183Z,146.94
2023-05-13T08:29:21.178Z,145.07
2023-05-13T08:30:21.367Z,147.02
2023-05-13T08:31:21.160Z,145.57
2023-05-13T08:32:21.194Z,146.55
2023-05-13T08:33:21.170Z,146.15
2023-05-13T08:34:21.187Z,148.28
2023-05-13T08:35:21.627Z,148.83
2023-05-13T08:36:21.117Z,147.03
2023-05-13T08:37:21.144Z,148.06
2023-05-13T08:38:21.828Z,148.27
2023-05-13T08:39:21.262Z,146.55
2023-05-13T08:40:21.360Z,146.67
2023-05-13T08:41:22.126Z,148.38
2023-05-13T08:42:21.198Z,148.39
2023-05-13T08:43:21.262Z,147.18
2023-05-13T08:44:21.293Z,148.37
2023-05-13T08:45:21.458Z,148.79
2023-05-13T08:46:21.360Z,146.50
2023-05-13T08:47:21.436Z,147.08
2023-05-13T08:48:21.380Z,150.23
2023-05-13T08:49:21.435Z,147.90
2023-05-13T08:50:21.931Z,150.07
2023-05-13T08:51:21.524Z,149.95
2023-05-13T08:52:21.532Z,152.55
2023-05-13T08:53:21.596Z,151.08
2023-05-13T08:54:23.868Z,151.99
2023-05-13T08:55:21.788Z,151.84
2023-05-13T08:56:21.699Z,151.53
2023-05-13T08:57:21.744Z,154.40
2023-05-13T08:58:21.770Z,152.47
2023-05-13T08:59:21.776Z,154.80
2023-05-13T09:00:22.001Z,153.98
2023-05-13T09:01:21.894Z,153.87
2023-05-13T09:02:21.862Z,155.06
2023-05-13T09:03:21.904Z,153.71
2023-05-13T09:04:21.974Z,153.41
2023-05-13T09:05:22.371Z,154.41
2023-05-13T09:06:22.019Z,156.80
2023-05-13T09:07:22.077Z,157.03
2023-05-13T09:08:22.070Z,155.85
2023-05-13T09:09:22.118Z,157.99
2023-05-13T09:10:22.179Z,158.54
2023-05-13T09:11:22.202Z,158.36
2023-05-13T09:12:22.210Z,157.68
2023-05-13T09:13:22.252Z,156.80
2023-05-13T09:14:22.285Z,157.98
2023-05-13T09:15:22.454Z,159.61
2023-05-13T09:16:22.329Z,159.98
2023-05-13T09:17:22.386Z,156.89
2023-05-13T09:18:22.548Z,157.41
2023-05-13T09:19:22.515Z,159.26
2023-05-13T09:20:22.916Z,158.15
2023-05-13T09:21:22.455Z,159.11
2023-05-13T09:22:22.511Z,157.40
2023-05-13T09:23:22.517Z,158.57
2023-05-13T09:24:22.538Z,161.26
2023-05-13T09:25:23.127Z,160.82
2023-05-13T09:26:22.612Z,159.05
2023-05-13T09:27:22.629Z,161.64
2023-05-13T09:28:22.655Z,161.54
2023-05-13T09:29:22.664Z,159.23
2023-05-13T09:30:22.890Z,162.60
2023-05-13T09:31:22.800Z,161.02
2023-05-13T09:32:22.758Z,161.47
2023-05-13T09:33:22.817Z,164.52
2023-05-13T09:34:22.832Z,165.24
2023-05-13T09:35:23.047Z,163.52
2023-05-13T09:36:22.836Z,167.97
2023-05-13T09:37:22.878Z,164.63
2023-05-13T09:38:22.903Z,165.22
2023-05-13T09:39:22.952Z,165.93
2023-05-13T09:40:23.155Z,164.35
2023-05-13T09:41:22.985Z,164.69
2023-05-13T09:42:22.998Z,164.96
2023-05-13T09:43:23.049Z,166.93
2023-05-13T09:44:23.055Z,165.10
2023-05-13T09:45:23.199Z,166.06
2023-05-13T09:46:23.114Z,166.18
2023-05-13T09:47:23.063Z,165.72
2023-05-13T09:48:23.106Z,166.18
2023-05-13T09:49:23.104Z,166.03
2023-05-13T09:50:23.362Z,165.65
2023-05-13T09:51:23.124Z,166.81
2023-05-13T09:52:23.182Z,166.50
2023-05-13T09:53:23.182Z,164.28
2023-05-13T09:54:23.205Z,166.76
2023-05-13T09:55:23.220Z,165.84
2023-05-13T09:56:23.238Z,169.22
2023-05-13T09:57:23.242Z,167.00
2023-05-13T09:58:23.271Z,166.88
2023-05-13T09:59:23.357Z,168.16
2023-05-13T10:00:32.255Z,164.24
2023-05-13T10:01:24.297Z,164.56
2023-05-13T10:02:23.311Z,165.03
2023-05-13T10:03:23.332Z,165.63
2023-05-13T10:04:23.300Z,166.35
2023-05-13T10:05:23.266Z,169.02
2023-05-13T10:06:23.251Z,166.97
2023-05-13T10:07:23.236Z,164.94
2023-05-13T10:08:23.239Z,167.49
2023-05-13T10:09:23.215Z,168.07
2023-05-13T10:10:23.683Z,169.21
2023-05-13T10:11:23.228Z,163.28
2023-05-13T10:12:23.241Z,169.97
2023-05-13T10:13:23.214Z,169.33
2023-05-13T10:14:23.205Z,168.96
2023-05-13T10:15:23.184Z,170.12
2023-05-13T10:16:23.222Z,168.58
2023-05-13T10:17:23.171Z,172.82
2023-05-13T10:18:23.238Z,170.48
2023-05-13T10:19:23.157Z,171.87
2023-05-13T10:20:23.681Z,167.94
2023-05-13T10:21:23.133Z,171.52
2023-05-13T10:22:23.158Z,171.83
2023-05-13T10:23:23.109Z,171.17
2023-05-13T10:24:23.127Z,168.02
2023-05-13T10:25:23.142Z,169.83
2023-05-13T10:26:23.130Z,172.16
2023-05-13T10:27:23.096Z,170.32
2023-05-13T10:28:23.137Z,172.54
2023-05-13T10:29:23.099Z,171.45
2023-05-13T10:30:23.605Z,171.69
2023-05-13T10:31:23.125Z,170.95
2023-05-13T10:32:23.113Z,168.84
2023-05-13T10:33:23.121Z,170.05
2023-05-13T10:34:23.147Z,172.51
2023-05-13T10:35:23.419Z,168.62
2023-05-13T10:36:23.135Z,168.64
2023-05-13T10:37:23.203Z,165.59
2023-05-13T10:38:23.213Z,165.81
2023-05-13T10:39:23.172Z,169.00
2023-05-13T10:40:23.705Z,172.30
2023-05-13T10:41:23.220Z,176.12
2023-05-13T10:42:23.280Z,170.26
2023-05-13T10:43:23.390Z,173.20
2023-05-13T10:44:23.291Z,170.07
2023-05-13T10:45:23.415Z,170.97
2023-05-13T10:46:23.374Z,171.25
2023-05-13T10:47:23.510Z,165.32
2023-05-13T10:48:24.041Z,166.16
2023-05-13T10:49:23.419Z,168.49
2023-05-13T10:50:24.034Z,170.65
2023-05-13T10:51:23.506Z,172.19
2023-05-13T10:52:23.467Z,171.12
2023-05-13T10:53:23.491Z,170.39
2023-05-13T10:54:23.542Z,171.70
2023-05-13T10:55:23.932Z,171.02
2023-05-13T10:56:23.531Z,170.29
2023-05-13T10:57:23.577Z,172.60
2023-05-13T10:58:23.574Z,172.72
2023-05-13T10:59:23.595Z,173.02
2023-05-13T11:00:24.028Z,173.37
2023-05-13T11:01:23.632Z,169.27
2023-05-13T11:02:23.723Z,172.92
2023-05-13T11:03:24.016Z,173.40
2023-05-13T11:04:23.662Z,172.80
2023-05-13T11:05:23.680Z,173.65
2023-05-13T11:06:23.849Z,170.87
2023-05-13T11:07:23.670Z,172.91
2023-05-13T11:08:23.719Z,171.79
2023-05-13T11:09:24.444Z,172.81
2023-05-13T11:10:23.960Z,171.26
2023-05-13T11:11:23.746Z,171.34
2023-05-13T11:12:23.743Z,170.82
2023-05-13T11:13:23.758Z,170.54
2023-05-13T11:14:23.848Z,170.91
2023-05-13T11:15:23.939Z,170.14
2023-05-13T11:16:23.844Z,166.84
2023-05-13T11:17:23.805Z,169.90
2023-05-13T11:18:23.887Z,168.97
2023-05-13T11:19:23.861Z,173.23
2023-05-13T11:20:24.039Z,170.66
2023-05-13T11:21:23.857Z,168.86
2023-05-13T11:22:23.984Z,172.02
2023-05-13T11:23:23.892Z,171.00
2023-05-13T11:24:23.905Z,171.49
2023-05-13T11:25:23.950Z,164.48
2023-05-13T11:26:23.924Z,171.63
2023-05-13T11:27:23.928Z,170.98
2023-05-13T11:28:23.962Z,166.10
2023-05-13T11:29:23.947Z,167.40
2023-05-13T11:30:24.270Z,169.17
2023-05-13T11:31:24.012Z,169.52
2023-05-13T11:32:24.005Z,168.05
2023-05-13T11:33:24.000Z,168.29
2023-05-13T11:34:24.027Z,163.27
2023-05-13T11:35:24.477Z,169.28
2023-05-13T11:36:24.010Z,170.16
2023-05-13T11:37:24.066Z,171.22
2023-05-13T11:38:24.079Z,167.41
2023-05-13T11:39:24.082Z,167.73
2023-05-13T11:40:24.218Z,169.52
2023-05-13T11:41:24.099Z,167.97
2023-05-13T11:42:24.106Z,169.00
2023-05-13T11:43:24.089Z,169.78
2023-05-13T11:44:24.112Z,160.87
2023-05-13T11:45:24.707Z,168.16
2023-05-13T11:46:24.164Z,166.98
2023-05-13T11:47:24.173Z,170.72
2023-05-13T11:48:24.166Z,166.59
2023-05-13T11:49:24.156Z,168.48
2023-05-13T11:50:24.183Z,166.98
2023-05-13T11:51:24.156Z,165.89
2023-05-13T11:52:24.163Z,168.12
2023-05-13T11:53:24.173Z,165.44
2023-05-13T11:54:24.187Z,168.97
2023-05-13T11:55:24.177Z,169.26
2023-05-13T11:56:24.459Z,166.21
2023-05-13T11:57:24.235Z,166.15
2023-05-13T11:58:24.261Z,165.34
2023-05-13T11:59:24.275Z,172.25
2023-05-13T12:00:24.255Z,167.33
2023-05-13T12:01:24.259Z,169.70
2023-05-13T12:02:24.359Z,171.40
2023-05-13T12:03:24.318Z,165.19
2023-05-13T12:04:24.235Z,163.86
2023-05-13T12:05:24.593Z,168.85
2023-05-13T12:06:24.251Z,170.49
2023-05-13T12:07:24.258Z,167.95
2023-05-13T12:08:24.279Z,167.56
2023-05-13T12:09:24.321Z,170.48
2023-05-13T12:10:24.287Z,168.37
2023-05-13T12:11:24.480Z,170.51
2023-05-13T12:12:24.290Z,170.28
2023-05-13T12:13:24.289Z,170.75
2023-05-13T12:14:26.382Z,168.36
2023-05-13T12:15:24.571Z,172.97
2023-05-13T12:16:24.514Z,170.40
2023-05-13T12:17:24.292Z,168.96
2023-05-13T12:18:24.267Z,172.64
2023-05-13T12:19:24.246Z,169.38
2023-05-13T12:20:24.261Z,166.69
2023-05-13T12:21:24.243Z,170.92
2023-05-13T12:22:24.238Z,164.73
2023-05-13T12:23:24.215Z,168.69
2023-05-13T12:24:24.221Z,169.15
2023-05-13T12:25:24.197Z,165.70
2023-05-13T12:26:24.181Z,170.34
2023-05-13T12:27:24.215Z,172.15
2023-05-13T12:28:24.205Z,168.66
2023-05-13T12:29:24.182Z,168.41
2023-05-13T12:30:24.152Z,171.37
2023-05-13T12:31:24.221Z,166.08
2023-05-13T12:32:24.146Z,167.53
2023-05-13T12:33:24.125Z,169.08
2023-05-13T12:34:24.136Z,168.08
2023-05-13T12:35:24.189Z,168.81
2023-05-13T12:36:24.514Z,170.88
2023-05-13T12:37:24.111Z,170.81
2023-05-13T12:38:24.161Z,162.49
2023-05-13T12:39:24.116Z,161.49